createdAt,value
2023-08-08T00:03:27.247Z,98956.29
2023-08-08T00:08:30.457Z,98961.98
2023-08-08T00:13:33.353Z,98963.55
2023-08-08T00:18:36.121Z,98964.21
2023-08-08T00:23:38.951Z,98963.52
2023-08-08T00:28:41.777Z,98974.02
2023-08-08T00:33:44.609Z,98979.52
2023-08-08T00:38:47.348Z,98981.56
2023-08-08T00:43:51.447Z,98982.27
2023-08-08T00:48:54.453Z,98986.04
2023-08-08T00:53:57.374Z,98992.52
2023-08-08T00:59:00.195Z,98994.58
2023-08-08T01:04:03.334Z,99001.98
2023-08-08T01:09:30.031Z,99013.94
2023-08-08T01:14:35.270Z,99020.14
2023-08-08T01:19:38.657Z,99022.87
2023-08-08T01:24:42.299Z,99015.73
2023-08-08T01:29:45.136Z,99022.65
2023-08-08T01:34:48.290Z,99027.38
2023-08-08T01:39:52.111Z,99030.69
2023-08-08T01:44:56.745Z,99037.19
2023-08-08T01:49:59.595Z,99043.80
2023-08-08T01:55:02.792Z,99045.88
2023-08-08T02:00:07.029Z,99055.01
2023-08-08T02:05:09.976Z,99056.11
2023-08-08T02:10:12.782Z,99065.16
2023-08-08T02:15:15.657Z,99066.17
2023-08-08T02:20:19.372Z,99067.30
2023-08-08T02:25:22.293Z,99069.02
2023-08-08T02:30:25.194Z,99077.48
2023-08-08T02:35:28.284Z,99079.30
2023-08-08T02:40:31.166Z,99076.32
2023-08-08T02:45:34.085Z,99079.79
2023-08-08T02:50:36.859Z,99083.41
2023-08-08T02:55:39.736Z,99089.30
2023-08-08T03:00:42.549Z,99089.48
2023-08-08T03:05:47.166Z,99089.23
2023-08-08T03:10:50.930Z,99092.28
2023-08-08T03:15:53.848Z,99097.25
2023-08-08T03:20:56.979Z,99100.79
2023-08-08T03:25:59.813Z,99101.23
2023-08-08T03:31:04.510Z,99103.42
2023-08-08T03:36:07.730Z,99107.39
2023-08-08T03:41:10.970Z,99107.14
2023-08-08T03:46:13.951Z,99116.41
2023-08-08T03:51:16.715Z,99129.45
2023-08-08T03:56:19.593Z,99130.89
2023-08-08T04:01:22.635Z,99136.25
2023-08-08T04:06:25.641Z,99145.06
2023-08-08T04:11:28.619Z,99147.70
2023-08-08T04:16:31.393Z,99156.99
2023-08-08T04:21:34.322Z,99163.42
2023-08-08T04:26:37.060Z,99170.16
2023-08-08T04:31:39.981Z,99183.29
2023-08-08T04:36:42.825Z,99185.92
2023-08-08T04:41:45.564Z,99189.09
2023-08-08T04:46:48.616Z,99200.67
2023-08-08T04:51:51.551Z,99208.27
2023-08-08T04:56:54.377Z,99208.12
2023-08-08T05:01:57.326Z,99212.55
2023-08-08T05:07:00.187Z,99212.41
2023-08-08T05:12:03.644Z,99220.34
2023-08-08T05:17:07.379Z,99220.84
2023-08-08T05:22:10.449Z,99227.63
2023-08-08T05:27:13.289Z,99234.55
2023-08-08T05:32:16.069Z,99237.48
2023-08-08T05:37:18.984Z,99241.48
2023-08-08T05:42:21.962Z,99239.09
2023-08-08T05:47:24.972Z,99244.18
2023-08-08T05:52:27.887Z,99244.08
2023-08-08T05:57:30.767Z,99251.02
2023-08-08T06:02:33.657Z,99253.96
2023-08-08T06:07:36.611Z,99256.70
2023-08-08T06:12:39.544Z,99264.70
2023-08-08T06:17:42.658Z,99266.53
2023-08-08T06:22:45.679Z,99269.52
2023-08-08T06:27:50.258Z,99276.10
2023-08-08T06:32:53.379Z,99277.16
2023-08-08T06:37:56.382Z,99283.65
2023-08-08T06:42:59.391Z,99287.27
2023-08-08T06:48:02.413Z,99282.98
2023-08-08T06:53:06.025Z,99291.24
2023-08-08T06:58:09.047Z,99295.13
2023-08-08T07:03:12.331Z,99294.26
2023-08-08T07:08:16.553Z,99294.90
2023-08-08T07:13:19.559Z,99299.34
2023-08-08T07:18:22.869Z,99300.55
2023-08-08T07:23:28.193Z,99312.73
2023-08-08T07:28:45.637Z,99326.14
2023-08-08T07:33:48.596Z,99333.36
2023-08-08T07:38:51.569Z,99337.48
2023-08-08T07:43:54.649Z,99347.54
2023-08-08T07:49:00.368Z,99352.50
2023-08-08T07:54:03.620Z,99348.95
2023-08-08T07:59:07.514Z,99364.35
2023-08-08T08:04:10.485Z,99368.39
2023-08-08T08:09:14.074Z,99372.75
2023-08-08T08:14:17.084Z,99378.43
2023-08-08T08:19:21.012Z,99388.73
2023-08-08T08:24:24.635Z,99386.48
2023-08-08T08:29:27.611Z,99393.26
2023-08-08T08:34:30.493Z,99381.96
2023-08-08T08:39:33.358Z,99393.23
2023-08-08T08:44:37.051Z,99393.55
2023-08-08T08:49:40.504Z,99392.70
2023-08-08T08:54:43.883Z,99388.58
2023-08-08T08:59:46.853Z,99397.30
2023-08-08T09:04:49.888Z,99406.18
2023-08-08T09:09:52.756Z,99412.55
2023-08-08T09:14:57.776Z,99413.05
2023-08-08T09:20:01.220Z,99412.23
2023-08-08T09:25:05.097Z,99420.73
2023-08-08T09:30:10.168Z,99423.61
2023-08-08T09:35:13.465Z,99431.48
2023-08-08T09:40:18.664Z,99440.61
2023-08-08T09:45:24.893Z,99446.64
2023-08-08T09:50:29.811Z,99447.30
2023-08-08T09:55:34.094Z,99463.55
2023-08-08T10:00:37.484Z,99466.44
2023-08-08T10:05:40.702Z,99469.95
2023-08-08T10:10:49.514Z,99480.00
2023-08-08T10:15:53.812Z,99484.95
2023-08-08T10:20:59.056Z,99484.73
2023-08-08T10:26:03.814Z,99475.09
2023-08-08T10:31:09.748Z,99479.97
2023-08-08T10:36:14.624Z,99482.20
2023-08-08T10:41:19.892Z,99494.63
2023-08-08T10:46:34.933Z,99490.52
2023-08-08T10:51:40.151Z,99501.27
2023-08-08T10:56:52.966Z,99496.73
2023-08-08T11:01:58.126Z,99496.93
2023-08-08T11:07:02.052Z,99494.77
2023-08-08T11:12:06.066Z,99503.70
2023-08-08T11:17:09.021Z,99505.46
2023-08-08T11:22:14.979Z,99500.90
2023-08-08T11:27:42.559Z,99500.00
2023-08-08T11:32:40.869Z,99509.10
2023-08-08T11:37:47.756Z,99518.27
2023-08-08T11:42:52.726Z,99522.42
2023-08-08T11:48:04.833Z,99532.20
2023-08-08T11:53:08.996Z,99531.12
2023-08-08T11:58:16.118Z,99534.44
2023-08-08T12:03:21.907Z,99534.27
2023-08-08T12:08:27.379Z,99527.49
2023-08-08T12:13:32.821Z,99537.04
2023-08-08T12:18:39.068Z,99541.05
2023-08-08T12:23:42.141Z,99541.41
2023-08-08T12:28:45.610Z,99547.59
2023-08-08T12:33:50.080Z,99546.94
2023-08-08T12:38:53.091Z,99551.10
2023-08-08T12:43:56.563Z,99551.36
2023-08-08T12:48:59.371Z,99560.88
2023-08-08T12:54:02.245Z,99566.29
2023-08-08T12:59:05.335Z,99560.85
2023-08-08T13:09:14.117Z,99573.25
2023-08-08T13:14:17.568Z,99580.77
2023-08-08T13:19:22.541Z,99581.27
2023-08-08T13:24:25.406Z,99579.70
2023-08-08T13:29:28.440Z,99578.98
2023-08-08T13:34:31.439Z,99592.66
2023-08-08T13:39:34.463Z,99636.64
2023-08-08T13:44:38.684Z,99664.78
2023-08-08T13:49:45.743Z,99653.95
2023-08-08T13:54:50.408Z,99638.29
2023-08-08T13:59:54.544Z,99634.46
2023-08-08T14:04:57.756Z,99644.19
2023-08-08T14:10:01.168Z,99646.41
2023-08-08T14:15:07.927Z,99641.11
2023-08-08T14:20:12.602Z,99651.41
2023-08-08T14:25:16.475Z,99655.09
2023-08-08T14:30:19.620Z,99654.15
2023-08-08T14:35:22.700Z,99653.66
2023-08-08T14:40:25.694Z,99653.21
2023-08-08T14:45:29.319Z,99647.98
2023-08-08T14:50:33.299Z,99655.05
2023-08-08T14:55:36.198Z,99657.01
2023-08-08T15:00:39.052Z,99659.95
2023-08-08T15:05:42.318Z,99657.63
2023-08-08T15:10:45.971Z,99651.52
2023-08-08T15:15:49.108Z,99649.29
2023-08-08T15:20:52.681Z,99645.81
2023-08-08T15:25:56.528Z,99640.71
2023-08-08T15:30:59.494Z,99640.08
2023-08-08T15:36:02.386Z,99636.29
2023-08-08T15:41:05.234Z,99641.16
2023-08-08T15:46:09.455Z,99645.50
2023-08-08T15:51:12.338Z,99648.04
2023-08-08T15:56:15.250Z,99651.61
2023-08-08T16:01:18.203Z,99658.81
2023-08-08T16:06:21.141Z,99659.77
2023-08-08T16:11:24.006Z,99653.73
2023-08-08T16:16:26.955Z,99656.56
2023-08-08T16:21:29.919Z,99651.66
2023-08-08T16:26:33.111Z,99663.14
2023-08-08T16:31:36.171Z,99667.95
2023-08-08T16:36:41.240Z,99675.59
2023-08-08T16:41:44.646Z,99669.91
2023-08-08T16:46:48.373Z,99678.15
2023-08-08T16:51:51.645Z,99679.36
2023-08-08T16:56:56.870Z,99679.45
2023-08-08T17:02:05.681Z,99678.73
2023-08-08T17:07:11.804Z,99689.11
2023-08-08T17:12:20.757Z,99694.30
2023-08-08T17:17:27.305Z,99700.19
2023-08-08T17:22:31.188Z,99706.65
2023-08-08T17:27:36.997Z,99705.43
2023-08-08T17:32:45.790Z,99711.35
2023-08-08T17:37:49.357Z,99707.70
2023-08-08T17:42:52.231Z,99706.25
2023-08-08T17:47:55.141Z,99708.51
2023-08-08T17:52:58.336Z,99712.20
2023-08-08T17:58:01.177Z,99713.41
2023-08-08T18:03:04.435Z,99714.01
2023-08-08T18:08:07.501Z,99713.77
2023-08-08T18:13:10.373Z,99714.86
2023-08-08T18:18:13.306Z,99720.11
2023-08-08T18:23:16.161Z,99718.14
2023-08-08T18:28:19.945Z,99713.48
2023-08-08T18:33:22.989Z,99714.79
2023-08-08T18:38:25.865Z,99718.91
2023-08-08T18:43:29.255Z,99725.85
2023-08-08T18:48:32.759Z,99726.42
2023-08-08T18:53:36.571Z,99724.21
2023-08-08T18:58:39.935Z,99726.85
2023-08-08T19:03:42.989Z,99726.45
2023-08-08T19:08:46.213Z,99728.53
2023-08-08T19:13:49.807Z,99740.61
2023-08-08T19:18:54.335Z,99750.34
2023-08-08T19:23:59.174Z,99748.50
2023-08-08T19:29:04.068Z,99749.50
2023-08-08T19:34:07.908Z,99744.84
2023-08-08T19:39:11.137Z,99739.16
2023-08-08T19:44:13.909Z,99738.33
2023-08-08T19:49:16.790Z,99728.23
2023-08-08T19:54:19.645Z,99727.56
2023-08-08T19:59:22.691Z,99726.42
2023-08-08T20:04:25.596Z,99719.41
2023-08-08T20:09:28.363Z,99713.88
2023-08-08T20:14:32.249Z,99713.93
2023-08-08T20:19:35.247Z,99707.20
2023-08-08T20:24:38.109Z,99706.48
2023-08-08T20:29:40.886Z,99703.05
2023-08-08T20:34:43.773Z,99699.00
2023-08-08T20:39:47.556Z,99696.73
2023-08-08T20:44:50.887Z,99697.33
2023-08-08T20:50:01.432Z,99698.63
2023-08-08T20:55:06.216Z,99685.85
2023-08-08T21:00:11.707Z,99682.73
2023-08-08T21:05:19.165Z,99680.09
2023-08-08T21:10:23.032Z,99683.51
2023-08-08T21:15:26.765Z,99680.17
2023-08-08T21:20:32.089Z,99687.55
2023-08-08T21:25:35.662Z,99686.00
2023-08-08T21:30:43.211Z,99690.41
2023-08-08T21:35:50.506Z,99697.80
2023-08-08T21:40:53.928Z,99698.35
2023-08-08T21:45:56.828Z,99702.56
2023-08-08T21:50:59.772Z,99696.38
2023-08-08T21:56:02.666Z,99698.48
2023-08-08T22:01:06.637Z,99695.91
2023-08-08T22:06:09.620Z,99700.29
2023-08-08T22:11:12.598Z,99717.38
2023-08-08T22:16:15.684Z,99720.15
2023-08-08T22:21:18.642Z,99722.73
2023-08-08T22:26:21.551Z,99722.83
2023-08-08T22:31:24.669Z,99721.67
2023-08-08T22:36:28.222Z,99718.52
2023-08-08T22:41:31.074Z,99717.09
2023-08-08T22:46:34.544Z,99720.13
2023-08-08T22:51:44.721Z,99716.43
2023-08-08T22:56:49.104Z,99725.40
2023-08-08T23:01:53.140Z,99735.73
2023-08-08T23:06:56.117Z,99739.07
2023-08-08T23:11:58.925Z,99740.76
2023-08-08T23:17:02.085Z,99746.41
2023-08-08T23:22:05.689Z,99747.20
2023-08-08T23:27:08.527Z,99748.59
2023-08-08T23:32:11.430Z,99748.77
2023-08-08T23:37:20.792Z,99747.91
2023-08-08T23:42:24.165Z,99746.37
2023-08-08T23:47:27.065Z,99755.95
2023-08-08T23:52:29.858Z,99756.34
2023-08-08T23:57:32.756Z,99752.15
